sensor_id;sensor_type;location;lat;lon;timestamp;P1;durP1;ratioP1;P2;durP2;ratioP2
59161;SDS011;44942;48.936;8.260;2023-12-22T00:01:06;7.70;;;2.40;;
59161;SDS011;44942;48.936;8.260;2023-12-22T00:06:07;6.37;;;2.50;;
59161;SDS011;44942;48.936;8.260;2023-12-22T00:11:08;5.95;;;2.20;;
59161;SDS011;44942;48.936;8.260;2023-12-22T00:16:08;6.60;;;2.47;;
59161;SDS011;44942;48.936;8.260;2023-12-22T00:21:10;7.60;;;2.70;;
59161;SDS011;44942;48.936;8.260;2023-12-22T00:31:11;4.27;;;1.87;;
59161;SDS011;44942;48.936;8.260;2023-12-22T00:36:12;5.93;;;2.10;;
59161;SDS011;44942;48.936;8.260;2023-12-22T00:41:13;7.40;;;2.05;;
59161;SDS011;44942;48.936;8.260;2023-12-22T00:46:13;5.88;;;1.90;;
59161;SDS011;44942;48.936;8.260;2023-12-22T00:51:14;5.93;;;1.90;;
59161;SDS011;44942;48.936;8.260;2023-12-22T00:56:16;5.03;;;1.88;;
59161;SDS011;44942;48.936;8.260;2023-12-22T01:01:17;5.40;;;2.20;;
59161;SDS011;44942;48.936;8.260;2023-12-22T01:06:17;5.22;;;2.03;;
59161;SDS011;44942;48.936;8.260;2023-12-22T01:11:18;5.33;;;1.80;;
59161;SDS011;44942;48.936;8.260;2023-12-22T01:16:18;3.97;;;1.60;;
59161;SDS011;44942;48.936;8.260;2023-12-22T01:21:21;4.22;;;1.55;;
59161;SDS011;44942;48.936;8.260;2023-12-22T01:26:22;5.00;;;1.90;;
59161;SDS011;44942;48.936;8.260;2023-12-22T01:31:22;3.97;;;1.70;;
59161;SDS011;44942;48.936;8.260;2023-12-22T01:36:23;4.80;;;1.63;;
59161;SDS011;44942;48.936;8.260;2023-12-22T01:41:23;5.03;;;1.73;;
59161;SDS011;44942;48.936;8.260;2023-12-22T01:46:24;5.30;;;1.77;;
59161;SDS011;44942;48.936;8.260;2023-12-22T01:51:25;4.00;;;1.67;;
59161;SDS011;44942;48.936;8.260;2023-12-22T01:56:25;3.30;;;1.90;;
59161;SDS011;44942;48.936;8.260;2023-12-22T02:01:27;2.67;;;1.20;;
59161;SDS011;44942;48.936;8.260;2023-12-22T02:06:28;5.95;;;1.48;;
59161;SDS011;44942;48.936;8.260;2023-12-22T02:11:30;3.33;;;1.48;;
59161;SDS011;44942;48.936;8.260;2023-12-22T02:16:32;2.83;;;1.30;;
59161;SDS011;44942;48.936;8.260;2023-12-22T02:22:03;3.63;;;1.50;;
59161;SDS011;44942;48.936;8.260;2023-12-22T02:27:06;3.25;;;1.42;;
59161;SDS011;44942;48.936;8.260;2023-12-22T02:32:48;3.10;;;1.15;;
59161;SDS011;44942;48.936;8.260;2023-12-22T02:37:42;2.88;;;1.10;;
59161;SDS011;44942;48.936;8.260;2023-12-22T02:42:48;5.15;;;1.50;;
59161;SDS011;44942;48.936;8.260;2023-12-22T02:47:49;6.35;;;1.20;;
59161;SDS011;44942;48.936;8.260;2023-12-22T02:52:50;3.40;;;1.20;;
59161;SDS011;44942;48.936;8.260;2023-12-22T02:57:51;2.10;;;1.10;;
59161;SDS011;44942;48.936;8.260;2023-12-22T03:02:51;3.60;;;1.47;;
59161;SDS011;44942;48.936;8.260;2023-12-22T03:07:52;2.83;;;1.20;;
59161;SDS011;44942;48.936;8.260;2023-12-22T03:12:52;2.03;;;1.10;;
59161;SDS011;44942;48.936;8.260;2023-12-22T03:17:53;1.67;;;1.00;;
59161;SDS011;44942;48.936;8.260;2023-12-22T03:22:53;1.67;;;1.10;;
59161;SDS011;44942;48.936;8.260;2023-12-22T03:27:54;2.90;;;1.10;;
59161;SDS011;44942;48.936;8.260;2023-12-22T03:32:54;3.40;;;1.20;;
59161;SDS011;44942;48.936;8.260;2023-12-22T03:37:55;2.17;;;1.20;;
59161;SDS011;44942;48.936;8.260;2023-12-22T03:42:56;2.20;;;1.10;;
59161;SDS011;44942;48.936;8.260;2023-12-22T03:47:56;1.80;;;1.00;;
59161;SDS011;44942;48.936;8.260;2023-12-22T03:52:57;1.77;;;0.90;;
59161;SDS011;44942;48.936;8.260;2023-12-22T03:57:57;2.47;;;1.00;;
59161;SDS011;44942;48.936;8.260;2023-12-22T04:02:58;1.33;;;0.83;;
59161;SDS011;44942;48.936;8.260;2023-12-22T04:07:59;2.08;;;1.00;;
59161;SDS011;44942;48.936;8.260;2023-12-22T04:12:59;2.00;;;0.90;;
59161;SDS011;44942;48.936;8.260;2023-12-22T04:18:00;2.13;;;1.07;;
59161;SDS011;44942;48.936;8.260;2023-12-22T04:23:00;1.87;;;1.00;;
59161;SDS011;44942;48.936;8.260;2023-12-22T04:28:02;2.27;;;0.53;;
59161;SDS011;44942;48.936;8.260;2023-12-22T04:33:03;2.17;;;1.00;;
59161;SDS011;44942;48.936;8.260;2023-12-22T04:38:04;3.40;;;0.75;;
59161;SDS011;44942;48.936;8.260;2023-12-22T04:43:04;4.07;;;1.17;;
59161;SDS011;44942;48.936;8.260;2023-12-22T04:48:05;2.57;;;0.90;;
59161;SDS011;44942;48.936;8.260;2023-12-22T04:53:06;4.00;;;1.02;;
59161;SDS011;44942;48.936;8.260;2023-12-22T04:58:07;4.27;;;1.17;;
59161;SDS011;44942;48.936;8.260;2023-12-22T05:03:07;2.97;;;1.00;;
59161;SDS011;44942;48.936;8.260;2023-12-22T05:08:08;2.90;;;0.90;;
59161;SDS011;44942;48.936;8.260;2023-12-22T05:13:08;2.60;;;0.87;;
59161;SDS011;44942;48.936;8.260;2023-12-22T05:18:09;2.73;;;1.00;;
59161;SDS011;44942;48.936;8.260;2023-12-22T05:23:10;2.23;;;0.70;;
59161;SDS011;44942;48.936;8.260;2023-12-22T05:28:10;1.85;;;0.80;;
59161;SDS011;44942;48.936;8.260;2023-12-22T05:33:11;3.60;;;1.00;;
59161;SDS011;44942;48.936;8.260;2023-12-22T05:38:11;1.17;;;0.80;;
59161;SDS011;44942;48.936;8.260;2023-12-22T05:43:12;1.57;;;0.80;;
59161;SDS011;44942;48.936;8.260;2023-12-22T05:48:13;2.07;;;0.80;;
59161;SDS011;44942;48.936;8.260;2023-12-22T05:53:13;4.20;;;0.90;;
59161;SDS011;44942;48.936;8.260;2023-12-22T06:03:15;249.73;;;11.90;;
59161;SDS011;44942;48.936;8.260;2023-12-22T06:08:16;11.70;;;2.60;;
59161;SDS011;44942;48.936;8.260;2023-12-22T06:13:16;9.80;;;2.30;;
59161;SDS011;44942;48.936;8.260;2023-12-22T06:18:17;9.93;;;2.17;;
59161;SDS011;44942;48.936;8.260;2023-12-22T06:23:17;6.67;;;2.10;;
59161;SDS011;44942;48.936;8.260;2023-12-22T06:28:18;8.00;;;2.47;;
59161;SDS011;44942;48.936;8.260;2023-12-22T06:33:19;11.97;;;2.10;;
59161;SDS011;44942;48.936;8.260;2023-12-22T06:38:19;10.77;;;2.00;;
59161;SDS011;44942;48.936;8.260;2023-12-22T06:43:20;6.87;;;1.97;;
59161;SDS011;44942;48.936;8.260;2023-12-22T06:48:21;6.72;;;2.10;;
59161;SDS011;44942;48.936;8.260;2023-12-22T06:53:21;6.33;;;2.07;;
59161;SDS011;44942;48.936;8.260;2023-12-22T06:58:22;11.33;;;2.47;;
59161;SDS011;44942;48.936;8.260;2023-12-22T07:03:25;7.70;;;2.20;;
59161;SDS011;44942;48.936;8.260;2023-12-22T07:08:26;10.23;;;2.17;;
59161;SDS011;44942;48.936;8.260;2023-12-22T07:13:26;11.10;;;2.43;;
59161;SDS011;44942;48.936;8.260;2023-12-22T07:18:27;49.37;;;4.17;;
59161;SDS011;44942;48.936;8.260;2023-12-22T07:23:30;38.97;;;3.90;;
59161;SDS011;44942;48.936;8.260;2023-12-22T07:28:31;75.97;;;6.43;;
59161;SDS011;44942;48.936;8.260;2023-12-22T07:33:31;60.20;;;7.60;;
59161;SDS011;44942;48.936;8.260;2023-12-22T07:38:32;46.97;;;5.87;;
59161;SDS011;44942;48.936;8.260;2023-12-22T07:43:33;64.40;;;13.00;;
59161;SDS011;44942;48.936;8.260;2023-12-22T07:48:33;215.70;;;18.70;;
59161;SDS011;44942;48.936;8.260;2023-12-22T07:53:34;52.10;;;11.87;;
59161;SDS011;44942;48.936;8.260;2023-12-22T07:58:35;49.40;;;10.75;;
59161;SDS011;44942;48.936;8.260;2023-12-22T08:03:36;46.97;;;9.38;;
59161;SDS011;44942;48.936;8.260;2023-12-22T08:08:37;37.50;;;8.97;;
59161;SDS011;44942;48.936;8.260;2023-12-22T08:13:37;33.63;;;9.27;;
59161;SDS011;44942;48.936;8.260;2023-12-22T08:18:38;33.97;;;8.73;;
59161;SDS011;44942;48.936;8.260;2023-12-22T08:23:39;68.57;;;12.57;;
59161;SDS011;44942;48.936;8.260;2023-12-22T08:28:39;43.57;;;8.43;;
59161;SDS011;44942;48.936;8.260;2023-12-22T08:33:40;29.50;;;7.77;;
59161;SDS011;44942;48.936;8.260;2023-12-22T08:38:43;30.23;;;5.90;;
59161;SDS011;44942;48.936;8.260;2023-12-22T08:43:44;47.23;;;7.67;;
59161;SDS011;44942;48.936;8.260;2023-12-22T08:48:44;29.43;;;6.03;;
59161;SDS011;44942;48.936;8.260;2023-12-22T08:53:45;28.57;;;5.00;;
59161;SDS011;44942;48.936;8.260;2023-12-22T08:58:45;19.67;;;5.43;;
59161;SDS011;44942;48.936;8.260;2023-12-22T09:03:46;33.03;;;5.07;;
59161;SDS011;44942;48.936;8.260;2023-12-22T09:08:47;83.67;;;7.73;;
59161;SDS011;44942;48.936;8.260;2023-12-22T09:13:47;66.18;;;6.88;;
59161;SDS011;44942;48.936;8.260;2023-12-22T09:18:48;63.00;;;7.60;;
59161;SDS011;44942;48.936;8.260;2023-12-22T09:28:50;84.87;;;7.97;;
59161;SDS011;44942;48.936;8.260;2023-12-22T09:33:51;103.83;;;8.73;;
59161;SDS011;44942;48.936;8.260;2023-12-22T09:38:51;84.63;;;7.80;;
59161;SDS011;44942;48.936;8.260;2023-12-22T09:43:52;91.87;;;9.33;;
59161;SDS011;44942;48.936;8.260;2023-12-22T09:48:56;78.38;;;8.05;;
59161;SDS011;44942;48.936;8.260;2023-12-22T09:53:56;59.88;;;6.68;;
59161;SDS011;44942;48.936;8.260;2023-12-22T09:58:58;42.13;;;6.22;;
59161;SDS011;44942;48.936;8.260;2023-12-22T10:04:00;50.30;;;6.25;;
59161;SDS011;44942;48.936;8.260;2023-12-22T10:09:00;28.35;;;5.25;;
59161;SDS011;44942;48.936;8.260;2023-12-22T10:14:05;24.27;;;4.35;;
59161;SDS011;44942;48.936;8.260;2023-12-22T10:19:06;35.42;;;5.50;;
59161;SDS011;44942;48.936;8.260;2023-12-22T10:24:09;37.15;;;6.70;;
59161;SDS011;44942;48.936;8.260;2023-12-22T10:29:44;23.20;;;4.70;;
59161;SDS011;44942;48.936;8.260;2023-12-22T10:34:44;21.73;;;4.83;;
59161;SDS011;44942;48.936;8.260;2023-12-22T10:39:45;23.93;;;4.60;;
59161;SDS011;44942;48.936;8.260;2023-12-22T10:44:48;16.75;;;4.50;;
59161;SDS011;44942;48.936;8.260;2023-12-22T10:49:49;19.00;;;4.00;;
59161;SDS011;44942;48.936;8.260;2023-12-22T10:54:51;20.10;;;4.93;;
59161;SDS011;44942;48.936;8.260;2023-12-22T10:59:51;25.50;;;4.17;;
59161;SDS011;44942;48.936;8.260;2023-12-22T11:10:07;20.55;;;4.32;;
59161;SDS011;44942;48.936;8.260;2023-12-22T11:15:10;23.42;;;4.03;;
59161;SDS011;44942;48.936;8.260;2023-12-22T11:20:14;26.77;;;5.07;;
59161;SDS011;44942;48.936;8.260;2023-12-22T11:25:16;29.05;;;5.40;;
59161;SDS011;44942;48.936;8.260;2023-12-22T11:30:18;29.63;;;6.60;;
59161;SDS011;44942;48.936;8.260;2023-12-22T11:35:21;22.83;;;4.88;;
59161;SDS011;44942;48.936;8.260;2023-12-22T11:40:23;20.67;;;5.18;;
59161;SDS011;44942;48.936;8.260;2023-12-22T11:45:24;18.37;;;4.43;;
59161;SDS011;44942;48.936;8.260;2023-12-22T11:50:28;22.55;;;4.60;;
59161;SDS011;44942;48.936;8.260;2023-12-22T12:01:10;26.20;;;4.43;;
59161;SDS011;44942;48.936;8.260;2023-12-22T12:06:14;22.38;;;4.95;;
59161;SDS011;44942;48.936;8.260;2023-12-22T12:11:16;22.80;;;4.63;;
59161;SDS011;44942;48.936;8.260;2023-12-22T12:16:18;21.98;;;3.85;;
59161;SDS011;44942;48.936;8.260;2023-12-22T12:21:22;19.80;;;3.83;;
59161;SDS011;44942;48.936;8.260;2023-12-22T12:26:23;16.83;;;3.57;;
59161;SDS011;44942;48.936;8.260;2023-12-22T12:31:35;22.48;;;3.70;;
59161;SDS011;44942;48.936;8.260;2023-12-22T12:36:38;16.85;;;3.35;;
59161;SDS011;44942;48.936;8.260;2023-12-22T12:41:42;12.38;;;3.05;;
59161;SDS011;44942;48.936;8.260;2023-12-22T12:46:46;13.50;;;3.00;;
59161;SDS011;44942;48.936;8.260;2023-12-22T12:51:47;23.97;;;4.50;;
59161;SDS011;44942;48.936;8.260;2023-12-22T12:56:49;32.58;;;6.80;;
59161;SDS011;44942;48.936;8.260;2023-12-22T13:01:49;174.23;;;23.15;;
59161;SDS011;44942;48.936;8.260;2023-12-22T13:06:50;178.53;;;61.13;;
59161;SDS011;44942;48.936;8.260;2023-12-22T13:11:51;163.70;;;72.60;;
59161;SDS011;44942;48.936;8.260;2023-12-22T13:16:53;190.85;;;83.25;;
59161;SDS011;44942;48.936;8.260;2023-12-22T13:21:56;157.65;;;81.22;;
59161;SDS011;44942;48.936;8.260;2023-12-22T13:27:00;136.93;;;71.38;;
59161;SDS011;44942;48.936;8.260;2023-12-22T13:32:03;135.70;;;69.63;;
59161;SDS011;44942;48.936;8.260;2023-12-22T13:37:04;119.95;;;62.03;;
59161;SDS011;44942;48.936;8.260;2023-12-22T13:42:05;105.07;;;57.83;;
59161;SDS011;44942;48.936;8.260;2023-12-22T13:47:18;101.60;;;56.28;;
59161;SDS011;44942;48.936;8.260;2023-12-22T13:52:25;94.28;;;48.65;;
59161;SDS011;44942;48.936;8.260;2023-12-22T13:57:34;79.65;;;44.45;;
59161;SDS011;44942;48.936;8.260;2023-12-22T14:02:35;83.63;;;44.50;;
59161;SDS011;44942;48.936;8.260;2023-12-22T14:07:36;71.87;;;44.10;;
59161;SDS011;44942;48.936;8.260;2023-12-22T14:12:37;69.07;;;38.78;;
59161;SDS011;44942;48.936;8.260;2023-12-22T14:17:39;60.83;;;36.80;;
59161;SDS011;44942;48.936;8.260;2023-12-22T14:22:42;56.35;;;35.90;;
59161;SDS011;44942;48.936;8.260;2023-12-22T14:27:42;59.60;;;33.03;;
59161;SDS011;44942;48.936;8.260;2023-12-22T14:32:43;53.57;;;31.27;;
59161;SDS011;44942;48.936;8.260;2023-12-22T14:37:44;51.20;;;31.00;;
59161;SDS011;44942;48.936;8.260;2023-12-22T14:42:46;46.03;;;27.77;;
59161;SDS011;44942;48.936;8.260;2023-12-22T14:47:46;43.53;;;26.90;;
59161;SDS011;44942;48.936;8.260;2023-12-22T14:52:47;41.45;;;26.92;;
59161;SDS011;44942;48.936;8.260;2023-12-22T14:57:48;42.93;;;25.73;;
59161;SDS011;44942;48.936;8.260;2023-12-22T15:02:48;38.83;;;26.90;;
59161;SDS011;44942;48.936;8.260;2023-12-22T15:07:49;41.83;;;26.03;;
59161;SDS011;44942;48.936;8.260;2023-12-22T15:12:50;43.23;;;26.20;;
59161;SDS011;44942;48.936;8.260;2023-12-22T15:17:50;43.50;;;27.13;;
59161;SDS011;44942;48.936;8.260;2023-12-22T15:22:51;41.30;;;26.53;;
59161;SDS011;44942;48.936;8.260;2023-12-22T15:27:51;47.03;;;27.03;;
59161;SDS011;44942;48.936;8.260;2023-12-22T15:32:55;40.95;;;26.98;;
59161;SDS011;44942;48.936;8.260;2023-12-22T15:37:55;41.63;;;26.10;;
59161;SDS011;44942;48.936;8.260;2023-12-22T15:47:57;39.33;;;25.47;;
59161;SDS011;44942;48.936;8.260;2023-12-22T15:52:58;36.20;;;24.07;;
59161;SDS011;44942;48.936;8.260;2023-12-22T15:57:58;38.87;;;25.67;;
59161;SDS011;44942;48.936;8.260;2023-12-22T16:02:59;75.47;;;27.33;;
59161;SDS011;44942;48.936;8.260;2023-12-22T16:07:59;59.00;;;25.83;;
59161;SDS011;44942;48.936;8.260;2023-12-22T16:13:02;58.53;;;24.23;;
59161;SDS011;44942;48.936;8.260;2023-12-22T16:18:03;66.38;;;24.92;;
59161;SDS011;44942;48.936;8.260;2023-12-22T16:23:04;54.80;;;24.20;;
59161;SDS011;44942;48.936;8.260;2023-12-22T16:28:05;68.82;;;24.20;;
59161;SDS011;44942;48.936;8.260;2023-12-22T16:33:06;111.87;;;25.00;;
59161;SDS011;44942;48.936;8.260;2023-12-22T16:38:06;104.07;;;26.73;;
59161;SDS011;44942;48.936;8.260;2023-12-22T16:43:07;123.23;;;24.80;;
59161;SDS011;44942;48.936;8.260;2023-12-22T16:48:07;127.30;;;25.90;;
59161;SDS011;44942;48.936;8.260;2023-12-22T16:53:08;110.17;;;23.97;;
59161;SDS011;44942;48.936;8.260;2023-12-22T16:58:08;103.67;;;24.50;;
59161;SDS011;44942;48.936;8.260;2023-12-22T17:03:09;117.27;;;23.17;;
59161;SDS011;44942;48.936;8.260;2023-12-22T17:08:10;112.63;;;23.42;;
59161;SDS011;44942;48.936;8.260;2023-12-22T17:13:10;115.00;;;29.50;;
59161;SDS011;44942;48.936;8.260;2023-12-22T17:18:11;118.83;;;32.13;;
59161;SDS011;44942;48.936;8.260;2023-12-22T17:23:12;124.63;;;38.60;;
59161;SDS011;44942;48.936;8.260;2023-12-22T17:28:12;118.17;;;43.03;;
59161;SDS011;44942;48.936;8.260;2023-12-22T17:33:13;122.40;;;44.63;;
59161;SDS011;44942;48.936;8.260;2023-12-22T17:38:13;118.43;;;46.50;;
59161;SDS011;44942;48.936;8.260;2023-12-22T17:43:14;105.20;;;41.50;;
59161;SDS011;44942;48.936;8.260;2023-12-22T17:48:14;96.40;;;37.67;;
59161;SDS011;44942;48.936;8.260;2023-12-22T17:53:15;92.20;;;35.63;;
59161;SDS011;44942;48.936;8.260;2023-12-22T17:58:16;72.80;;;29.77;;
59161;SDS011;44942;48.936;8.260;2023-12-22T18:03:17;75.95;;;28.33;;
59161;SDS011;44942;48.936;8.260;2023-12-22T18:08:18;97.50;;;28.60;;
59161;SDS011;44942;48.936;8.260;2023-12-22T18:13:18;98.93;;;26.03;;
59161;SDS011;44942;48.936;8.260;2023-12-22T18:18:19;107.40;;;25.80;;
59161;SDS011;44942;48.936;8.260;2023-12-22T18:23:20;126.13;;;27.90;;
59161;SDS011;44942;48.936;8.260;2023-12-22T18:28:20;196.57;;;29.83;;
59161;SDS011;44942;48.936;8.260;2023-12-22T18:33:21;152.90;;;27.57;;
59161;SDS011;44942;48.936;8.260;2023-12-22T18:38:23;217.40;;;30.83;;
59161;SDS011;44942;48.936;8.260;2023-12-22T18:43:24;270.87;;;50.40;;
59161;SDS011;44942;48.936;8.260;2023-12-22T18:48:24;186.40;;;43.57;;
59161;SDS011;44942;48.936;8.260;2023-12-22T18:53:25;152.97;;;36.40;;
59161;SDS011;44942;48.936;8.260;2023-12-22T18:58:25;130.07;;;34.13;;
59161;SDS011;44942;48.936;8.260;2023-12-22T19:03:28;118.80;;;30.75;;
59161;SDS011;44942;48.936;8.260;2023-12-22T19:08:29;106.20;;;28.00;;
59161;SDS011;44942;48.936;8.260;2023-12-22T19:13:30;95.93;;;26.03;;
59161;SDS011;44942;48.936;8.260;2023-12-22T19:18:30;86.67;;;24.03;;
59161;SDS011;44942;48.936;8.260;2023-12-22T19:23:31;73.33;;;23.07;;
59161;SDS011;44942;48.936;8.260;2023-12-22T19:28:32;68.03;;;24.00;;
59161;SDS011;44942;48.936;8.260;2023-12-22T19:33:32;72.83;;;22.83;;
59161;SDS011;44942;48.936;8.260;2023-12-22T19:38:33;65.70;;;24.13;;
59161;SDS011;44942;48.936;8.260;2023-12-22T19:43:34;65.22;;;22.90;;
59161;SDS011;44942;48.936;8.260;2023-12-22T19:53:36;55.87;;;20.47;;
59161;SDS011;44942;48.936;8.260;2023-12-22T19:58:36;49.53;;;21.03;;
59161;SDS011;44942;48.936;8.260;2023-12-22T20:03:37;55.20;;;21.00;;
59161;SDS011;44942;48.936;8.260;2023-12-22T20:08:37;47.83;;;18.57;;
59161;SDS011;44942;48.936;8.260;2023-12-22T20:13:38;48.27;;;20.13;;
59161;SDS011;44942;48.936;8.260;2023-12-22T20:18:39;50.67;;;19.40;;
59161;SDS011;44942;48.936;8.260;2023-12-22T20:23:39;43.03;;;17.77;;
59161;SDS011;44942;48.936;8.260;2023-12-22T20:28:40;38.30;;;18.20;;
59161;SDS011;44942;48.936;8.260;2023-12-22T20:33:41;39.57;;;18.00;;
59161;SDS011;44942;48.936;8.260;2023-12-22T20:38:41;41.50;;;17.63;;
59161;SDS011;44942;48.936;8.260;2023-12-22T20:43:42;39.60;;;17.57;;
59161;SDS011;44942;48.936;8.260;2023-12-22T20:48:42;38.33;;;16.90;;
59161;SDS011;44942;48.936;8.260;2023-12-22T20:53:43;34.90;;;16.20;;
59161;SDS011;44942;48.936;8.260;2023-12-22T20:58:43;32.23;;;15.60;;
59161;SDS011;44942;48.936;8.260;2023-12-22T21:03:44;32.72;;;15.07;;
59161;SDS011;44942;48.936;8.260;2023-12-22T21:08:45;30.63;;;14.93;;
59161;SDS011;44942;48.936;8.260;2023-12-22T21:13:45;29.43;;;15.70;;
59161;SDS011;44942;48.936;8.260;2023-12-22T21:18:47;33.25;;;14.07;;
59161;SDS011;44942;48.936;8.260;2023-12-22T21:23:48;28.20;;;13.93;;
59161;SDS011;44942;48.936;8.260;2023-12-22T21:28:48;27.13;;;13.27;;
59161;SDS011;44942;48.936;8.260;2023-12-22T21:33:49;24.80;;;13.25;;
59161;SDS011;44942;48.936;8.260;2023-12-22T21:38:50;24.87;;;12.57;;
59161;SDS011;44942;48.936;8.260;2023-12-22T21:43:51;24.75;;;12.02;;
59161;SDS011;44942;48.936;8.260;2023-12-22T21:48:52;25.27;;;12.87;;
59161;SDS011;44942;48.936;8.260;2023-12-22T21:53:52;22.93;;;11.67;;
59161;SDS011;44942;48.936;8.260;2023-12-22T21:58:53;21.70;;;11.17;;
59161;SDS011;44942;48.936;8.260;2023-12-22T22:03:54;21.80;;;11.13;;
59161;SDS011;44942;48.936;8.260;2023-12-22T22:08:54;18.40;;;10.13;;
59161;SDS011;44942;48.936;8.260;2023-12-22T22:13:55;21.53;;;11.30;;
59161;SDS011;44942;48.936;8.260;2023-12-22T22:18:56;18.10;;;10.17;;
59161;SDS011;44942;48.936;8.260;2023-12-22T22:23:56;18.17;;;10.40;;
59161;SDS011;44942;48.936;8.260;2023-12-22T22:28:57;18.20;;;9.77;;
59161;SDS011;44942;48.936;8.260;2023-12-22T22:33:58;18.05;;;9.45;;
59161;SDS011;44942;48.936;8.260;2023-12-22T22:38:58;15.53;;;8.83;;
59161;SDS011;44942;48.936;8.260;2023-12-22T22:43:59;18.00;;;8.97;;
59161;SDS011;44942;48.936;8.260;2023-12-22T22:49:00;17.97;;;8.60;;
59161;SDS011;44942;48.936;8.260;2023-12-22T22:54:00;14.87;;;8.07;;
59161;SDS011;44942;48.936;8.260;2023-12-22T22:59:01;16.37;;;8.47;;
59161;SDS011;44942;48.936;8.260;2023-12-22T23:04:01;14.03;;;7.60;;
59161;SDS011;44942;48.936;8.260;2023-12-22T23:09:02;13.48;;;7.45;;
59161;SDS011;44942;48.936;8.260;2023-12-22T23:14:03;16.90;;;7.87;;
59161;SDS011;44942;48.936;8.260;2023-12-22T23:19:03;15.07;;;7.73;;
59161;SDS011;44942;48.936;8.260;2023-12-22T23:24:04;12.17;;;7.33;;
59161;SDS011;44942;48.936;8.260;2023-12-22T23:29:06;11.82;;;7.15;;
59161;SDS011;44942;48.936;8.260;2023-12-22T23:34:06;10.53;;;6.50;;
59161;SDS011;44942;48.936;8.260;2023-12-22T23:39:07;10.05;;;6.82;;
59161;SDS011;44942;48.936;8.260;2023-12-22T23:44:08;10.87;;;5.77;;
59161;SDS011;44942;48.936;8.260;2023-12-22T23:49:08;10.47;;;6.47;;
59161;SDS011;44942;48.936;8.260;2023-12-22T23:54:09;10.13;;;6.23;;
59161;SDS011;44942;48.936;8.260;2023-12-22T23:59:09;10.80;;;6.37;;
